sensor_id;sensor_type;location;lat;lon;timestamp;P1;durP1;ratioP1;P2;durP2;ratioP2
7645;SDS011;3864;48.180;14.178;2024-03-02T00:01:07;70.43;;;25.42;;
7645;SDS011;3864;48.180;14.178;2024-03-02T00:03:36;69.18;;;27.90;;
7645;SDS011;3864;48.180;14.178;2024-03-02T00:06:04;78.78;;;28.45;;
7645;SDS011;3864;48.180;14.178;2024-03-02T00:08:31;71.60;;;27.33;;
7645;SDS011;3864;48.180;14.178;2024-03-02T00:10:59;75.32;;;27.10;;
7645;SDS011;3864;48.180;14.178;2024-03-02T00:13:28;71.40;;;26.67;;
7645;SDS011;3864;48.180;14.178;2024-03-02T00:15:56;75.57;;;26.85;;
7645;SDS011;3864;48.180;14.178;2024-03-02T00:18:26;71.95;;;27.02;;
7645;SDS011;3864;48.180;14.178;2024-03-02T00:20:59;64.95;;;25.95;;
7645;SDS011;3864;48.180;14.178;2024-03-02T00:23:28;67.53;;;26.02;;
7645;SDS011;3864;48.180;14.178;2024-03-02T00:25:57;65.30;;;25.55;;
7645;SDS011;3864;48.180;14.178;2024-03-02T00:28:25;69.80;;;27.05;;
7645;SDS011;3864;48.180;14.178;2024-03-02T00:30:57;69.60;;;24.63;;
7645;SDS011;3864;48.180;14.178;2024-03-02T00:36:10;72.55;;;25.80;;
7645;SDS011;3864;48.180;14.178;2024-03-02T00:38:45;68.50;;;25.63;;
7645;SDS011;3864;48.180;14.178;2024-03-02T00:41:19;69.25;;;25.38;;
7645;SDS011;3864;48.180;14.178;2024-03-02T00:43:51;72.70;;;24.42;;
7645;SDS011;3864;48.180;14.178;2024-03-02T00:46:24;75.40;;;26.40;;
7645;SDS011;3864;48.180;14.178;2024-03-02T00:48:56;72.05;;;26.55;;
7645;SDS011;3864;48.180;14.178;2024-03-02T00:51:25;72.35;;;26.08;;
7645;SDS011;3864;48.180;14.178;2024-03-02T00:53:54;67.93;;;25.02;;
7645;SDS011;3864;48.180;14.178;2024-03-02T00:56:22;69.72;;;23.08;;
7645;SDS011;3864;48.180;14.178;2024-03-02T00:58:50;74.03;;;25.02;;
7645;SDS011;3864;48.180;14.178;2024-03-02T01:01:17;71.75;;;25.10;;
7645;SDS011;3864;48.180;14.178;2024-03-02T01:03:45;67.72;;;24.75;;
7645;SDS011;3864;48.180;14.178;2024-03-02T01:06:14;69.88;;;25.17;;
7645;SDS011;3864;48.180;14.178;2024-03-02T01:08:42;68.88;;;24.20;;
7645;SDS011;3864;48.180;14.178;2024-03-02T01:11:09;75.00;;;26.48;;
7645;SDS011;3864;48.180;14.178;2024-03-02T01:13:37;75.82;;;25.73;;
7645;SDS011;3864;48.180;14.178;2024-03-02T01:16:04;73.32;;;25.83;;
7645;SDS011;3864;48.180;14.178;2024-03-02T01:18:31;69.97;;;25.50;;
7645;SDS011;3864;48.180;14.178;2024-03-02T01:20:59;67.32;;;23.45;;
7645;SDS011;3864;48.180;14.178;2024-03-02T01:23:28;74.95;;;26.45;;
7645;SDS011;3864;48.180;14.178;2024-03-02T01:25:55;73.18;;;26.02;;
7645;SDS011;3864;48.180;14.178;2024-03-02T01:28:22;75.35;;;27.13;;
7645;SDS011;3864;48.180;14.178;2024-03-02T01:30:49;81.35;;;26.60;;
7645;SDS011;3864;48.180;14.178;2024-03-02T01:33:16;67.78;;;23.63;;
7645;SDS011;3864;48.180;14.178;2024-03-02T01:35:44;79.75;;;27.88;;
7645;SDS011;3864;48.180;14.178;2024-03-02T01:40:39;64.40;;;23.67;;
7645;SDS011;3864;48.180;14.178;2024-03-02T01:43:06;71.50;;;27.15;;
7645;SDS011;3864;48.180;14.178;2024-03-02T01:45:34;73.97;;;25.48;;
7645;SDS011;3864;48.180;14.178;2024-03-02T01:48:02;77.28;;;26.25;;
7645;SDS011;3864;48.180;14.178;2024-03-02T01:50:31;78.68;;;26.85;;
7645;SDS011;3864;48.180;14.178;2024-03-02T01:52:59;76.55;;;26.30;;
7645;SDS011;3864;48.180;14.178;2024-03-02T01:55:27;72.78;;;25.95;;
7645;SDS011;3864;48.180;14.178;2024-03-02T01:57:56;71.43;;;23.65;;
7645;SDS011;3864;48.180;14.178;2024-03-02T02:00:24;68.78;;;24.63;;
7645;SDS011;3864;48.180;14.178;2024-03-02T02:02:51;69.28;;;25.05;;
7645;SDS011;3864;48.180;14.178;2024-03-02T02:05:19;74.38;;;26.58;;
7645;SDS011;3864;48.180;14.178;2024-03-02T02:07:46;67.65;;;23.52;;
7645;SDS011;3864;48.180;14.178;2024-03-02T02:10:13;74.25;;;26.17;;
7645;SDS011;3864;48.180;14.178;2024-03-02T02:12:41;78.78;;;28.42;;
7645;SDS011;3864;48.180;14.178;2024-03-02T02:15:25;67.78;;;25.30;;
7645;SDS011;3864;48.180;14.178;2024-03-02T02:20:20;76.18;;;25.33;;
7645;SDS011;3864;48.180;14.178;2024-03-02T02:22:58;72.78;;;24.63;;
7645;SDS011;3864;48.180;14.178;2024-03-02T02:25:26;81.78;;;27.48;;
7645;SDS011;3864;48.180;14.178;2024-03-02T02:27:53;74.40;;;25.67;;
7645;SDS011;3864;48.180;14.178;2024-03-02T02:30:21;79.57;;;25.20;;
7645;SDS011;3864;48.180;14.178;2024-03-02T02:32:51;80.90;;;26.95;;
7645;SDS011;3864;48.180;14.178;2024-03-02T02:35:18;78.95;;;25.77;;
7645;SDS011;3864;48.180;14.178;2024-03-02T02:37:46;86.30;;;29.48;;
7645;SDS011;3864;48.180;14.178;2024-03-02T02:40:15;79.60;;;25.92;;
7645;SDS011;3864;48.180;14.178;2024-03-02T02:42:44;72.07;;;25.02;;
7645;SDS011;3864;48.180;14.178;2024-03-02T02:45:11;68.18;;;25.92;;
7645;SDS011;3864;48.180;14.178;2024-03-02T02:47:39;83.50;;;27.77;;
7645;SDS011;3864;48.180;14.178;2024-03-02T02:50:07;85.45;;;28.33;;
7645;SDS011;3864;48.180;14.178;2024-03-02T02:52:36;90.68;;;26.67;;
7645;SDS011;3864;48.180;14.178;2024-03-02T02:55:05;90.30;;;29.27;;
7645;SDS011;3864;48.180;14.178;2024-03-02T02:57:36;77.95;;;26.63;;
7645;SDS011;3864;48.180;14.178;2024-03-02T03:00:05;84.07;;;29.15;;
7645;SDS011;3864;48.180;14.178;2024-03-02T03:02:39;76.57;;;26.75;;
7645;SDS011;3864;48.180;14.178;2024-03-02T03:05:07;85.35;;;28.55;;
7645;SDS011;3864;48.180;14.178;2024-03-02T03:07:35;92.00;;;28.00;;
7645;SDS011;3864;48.180;14.178;2024-03-02T03:10:01;79.00;;;28.05;;
7645;SDS011;3864;48.180;14.178;2024-03-02T03:12:29;82.88;;;27.35;;
7645;SDS011;3864;48.180;14.178;2024-03-02T03:14:58;95.13;;;27.80;;
7645;SDS011;3864;48.180;14.178;2024-03-02T03:17:25;95.70;;;26.58;;
7645;SDS011;3864;48.180;14.178;2024-03-02T03:19:53;95.75;;;29.67;;
7645;SDS011;3864;48.180;14.178;2024-03-02T03:22:20;86.22;;;29.08;;
7645;SDS011;3864;48.180;14.178;2024-03-02T03:24:47;95.88;;;30.73;;
7645;SDS011;3864;48.180;14.178;2024-03-02T03:27:15;91.95;;;27.95;;
7645;SDS011;3864;48.180;14.178;2024-03-02T03:29:42;78.80;;;24.67;;
7645;SDS011;3864;48.180;14.178;2024-03-02T03:32:10;82.00;;;26.85;;
7645;SDS011;3864;48.180;14.178;2024-03-02T03:34:37;78.80;;;27.58;;
7645;SDS011;3864;48.180;14.178;2024-03-02T03:37:05;76.50;;;25.35;;
7645;SDS011;3864;48.180;14.178;2024-03-02T03:39:33;79.32;;;26.85;;
7645;SDS011;3864;48.180;14.178;2024-03-02T03:42:01;79.10;;;27.40;;
7645;SDS011;3864;48.180;14.178;2024-03-02T03:44:28;71.25;;;23.92;;
7645;SDS011;3864;48.180;14.178;2024-03-02T03:46:55;79.38;;;25.98;;
7645;SDS011;3864;48.180;14.178;2024-03-02T03:49:24;80.95;;;28.33;;
7645;SDS011;3864;48.180;14.178;2024-03-02T03:51:51;79.72;;;25.80;;
7645;SDS011;3864;48.180;14.178;2024-03-02T03:54:18;72.97;;;24.98;;
7645;SDS011;3864;48.180;14.178;2024-03-02T03:56:45;82.57;;;24.83;;
7645;SDS011;3864;48.180;14.178;2024-03-02T03:59:12;78.18;;;27.02;;
7645;SDS011;3864;48.180;14.178;2024-03-02T04:04:06;73.47;;;23.50;;
7645;SDS011;3864;48.180;14.178;2024-03-02T04:06:35;74.65;;;23.90;;
7645;SDS011;3864;48.180;14.178;2024-03-02T04:09:02;71.68;;;22.60;;
7645;SDS011;3864;48.180;14.178;2024-03-02T04:11:30;69.93;;;25.45;;
7645;SDS011;3864;48.180;14.178;2024-03-02T04:13:57;74.90;;;25.23;;
7645;SDS011;3864;48.180;14.178;2024-03-02T04:16:24;91.80;;;31.02;;
7645;SDS011;3864;48.180;14.178;2024-03-02T04:18:51;83.07;;;26.80;;
7645;SDS011;3864;48.180;14.178;2024-03-02T04:23:46;72.85;;;24.15;;
7645;SDS011;3864;48.180;14.178;2024-03-02T04:26:13;78.78;;;26.88;;
7645;SDS011;3864;48.180;14.178;2024-03-02T04:28:44;67.53;;;25.58;;
7645;SDS011;3864;48.180;14.178;2024-03-02T04:31:11;68.72;;;25.30;;
7645;SDS011;3864;48.180;14.178;2024-03-02T04:33:39;77.20;;;24.80;;
7645;SDS011;3864;48.180;14.178;2024-03-02T04:36:06;71.80;;;24.17;;
7645;SDS011;3864;48.180;14.178;2024-03-02T04:38:34;68.60;;;23.15;;
7645;SDS011;3864;48.180;14.178;2024-03-02T04:41:03;73.07;;;22.75;;
7645;SDS011;3864;48.180;14.178;2024-03-02T04:43:31;76.75;;;26.15;;
7645;SDS011;3864;48.180;14.178;2024-03-02T04:45:58;76.57;;;24.75;;
7645;SDS011;3864;48.180;14.178;2024-03-02T04:48:25;78.18;;;25.52;;
7645;SDS011;3864;48.180;14.178;2024-03-02T04:50:52;75.07;;;26.08;;
7645;SDS011;3864;48.180;14.178;2024-03-02T04:53:19;75.93;;;23.80;;
7645;SDS011;3864;48.180;14.178;2024-03-02T04:58:54;75.63;;;25.55;;
7645;SDS011;3864;48.180;14.178;2024-03-02T05:01:21;82.82;;;25.83;;
7645;SDS011;3864;48.180;14.178;2024-03-02T05:03:48;80.63;;;25.65;;
7645;SDS011;3864;48.180;14.178;2024-03-02T05:06:16;91.90;;;26.33;;
7645;SDS011;3864;48.180;14.178;2024-03-02T05:08:42;71.18;;;23.50;;
7645;SDS011;3864;48.180;14.178;2024-03-02T05:11:10;89.70;;;27.08;;
7645;SDS011;3864;48.180;14.178;2024-03-02T05:14:17;74.60;;;26.65;;
7645;SDS011;3864;48.180;14.178;2024-03-02T05:16:44;70.72;;;23.73;;
7645;SDS011;3864;48.180;14.178;2024-03-02T05:19:11;75.90;;;26.90;;
7645;SDS011;3864;48.180;14.178;2024-03-02T05:21:38;69.00;;;23.35;;
7645;SDS011;3864;48.180;14.178;2024-03-02T05:24:05;79.43;;;24.52;;
7645;SDS011;3864;48.180;14.178;2024-03-02T05:26:32;87.88;;;25.73;;
7645;SDS011;3864;48.180;14.178;2024-03-02T05:28:59;83.43;;;25.58;;
7645;SDS011;3864;48.180;14.178;2024-03-02T05:31:28;85.75;;;25.42;;
7645;SDS011;3864;48.180;14.178;2024-03-02T05:33:55;87.38;;;27.00;;
7645;SDS011;3864;48.180;14.178;2024-03-02T05:36:22;85.18;;;25.38;;
7645;SDS011;3864;48.180;14.178;2024-03-02T05:38:49;88.05;;;27.05;;
7645;SDS011;3864;48.180;14.178;2024-03-02T05:41:16;94.80;;;29.00;;
7645;SDS011;3864;48.180;14.178;2024-03-02T05:43:43;96.90;;;26.92;;
7645;SDS011;3864;48.180;14.178;2024-03-02T05:46:10;85.65;;;26.15;;
7645;SDS011;3864;48.180;14.178;2024-03-02T05:48:39;79.25;;;24.92;;
7645;SDS011;3864;48.180;14.178;2024-03-02T05:51:06;88.15;;;26.40;;
7645;SDS011;3864;48.180;14.178;2024-03-02T05:53:33;76.22;;;26.23;;
7645;SDS011;3864;48.180;14.178;2024-03-02T05:56:03;90.25;;;26.52;;
7645;SDS011;3864;48.180;14.178;2024-03-02T05:58:30;119.88;;;30.33;;
7645;SDS011;3864;48.180;14.178;2024-03-02T06:01:08;107.50;;;28.35;;
7645;SDS011;3864;48.180;14.178;2024-03-02T06:03:35;102.45;;;26.85;;
7645;SDS011;3864;48.180;14.178;2024-03-02T06:06:04;78.35;;;24.90;;
7645;SDS011;3864;48.180;14.178;2024-03-02T06:08:31;211.63;;;35.40;;
7645;SDS011;3864;48.180;14.178;2024-03-02T06:10:58;104.63;;;30.05;;
7645;SDS011;3864;48.180;14.178;2024-03-02T06:13:25;113.63;;;28.60;;
7645;SDS011;3864;48.180;14.178;2024-03-02T06:15:52;98.60;;;28.55;;
7645;SDS011;3864;48.180;14.178;2024-03-02T06:18:20;104.75;;;29.20;;
7645;SDS011;3864;48.180;14.178;2024-03-02T06:20:47;116.88;;;30.55;;
7645;SDS011;3864;48.180;14.178;2024-03-02T06:23:16;143.15;;;31.88;;
7645;SDS011;3864;48.180;14.178;2024-03-02T06:25:43;102.20;;;29.52;;
7645;SDS011;3864;48.180;14.178;2024-03-02T06:28:10;101.88;;;31.58;;
7645;SDS011;3864;48.180;14.178;2024-03-02T06:30:40;100.75;;;28.38;;
7645;SDS011;3864;48.180;14.178;2024-03-02T06:33:07;102.40;;;29.15;;
7645;SDS011;3864;48.180;14.178;2024-03-02T06:35:34;101.70;;;29.60;;
7645;SDS011;3864;48.180;14.178;2024-03-02T06:38:01;91.85;;;29.27;;
7645;SDS011;3864;48.180;14.178;2024-03-02T06:40:30;94.78;;;29.27;;
7645;SDS011;3864;48.180;14.178;2024-03-02T06:42:57;81.53;;;27.88;;
7645;SDS011;3864;48.180;14.178;2024-03-02T06:45:24;84.72;;;28.38;;
7645;SDS011;3864;48.180;14.178;2024-03-02T06:47:51;83.32;;;27.83;;
7645;SDS011;3864;48.180;14.178;2024-03-02T06:50:18;75.90;;;29.20;;
7645;SDS011;3864;48.180;14.178;2024-03-02T06:52:45;82.68;;;27.58;;
7645;SDS011;3864;48.180;14.178;2024-03-02T06:55:12;81.88;;;27.52;;
7645;SDS011;3864;48.180;14.178;2024-03-02T06:57:41;74.05;;;26.95;;
7645;SDS011;3864;48.180;14.178;2024-03-02T07:00:08;64.05;;;24.58;;
7645;SDS011;3864;48.180;14.178;2024-03-02T07:02:36;62.88;;;23.95;;
7645;SDS011;3864;48.180;14.178;2024-03-02T07:05:05;73.45;;;26.63;;
7645;SDS011;3864;48.180;14.178;2024-03-02T07:07:33;69.78;;;25.77;;
7645;SDS011;3864;48.180;14.178;2024-03-02T07:10:02;63.65;;;24.90;;
7645;SDS011;3864;48.180;14.178;2024-03-02T07:12:29;66.78;;;27.77;;
7645;SDS011;3864;48.180;14.178;2024-03-02T07:14:58;71.00;;;25.27;;
7645;SDS011;3864;48.180;14.178;2024-03-02T07:17:50;67.95;;;26.08;;
7645;SDS011;3864;48.180;14.178;2024-03-02T07:20:17;62.58;;;26.08;;
7645;SDS011;3864;48.180;14.178;2024-03-02T07:22:44;64.95;;;25.73;;
7645;SDS011;3864;48.180;14.178;2024-03-02T07:25:11;61.70;;;27.15;;
7645;SDS011;3864;48.180;14.178;2024-03-02T07:27:38;59.55;;;24.08;;
7645;SDS011;3864;48.180;14.178;2024-03-02T07:30:08;62.25;;;26.00;;
7645;SDS011;3864;48.180;14.178;2024-03-02T07:32:36;56.83;;;26.40;;
7645;SDS011;3864;48.180;14.178;2024-03-02T07:35:04;54.58;;;24.35;;
7645;SDS011;3864;48.180;14.178;2024-03-02T07:37:32;58.63;;;24.38;;
7645;SDS011;3864;48.180;14.178;2024-03-02T07:39:59;53.45;;;23.45;;
7645;SDS011;3864;48.180;14.178;2024-03-02T07:42:28;51.88;;;21.67;;
7645;SDS011;3864;48.180;14.178;2024-03-02T07:44:55;47.95;;;22.77;;
7645;SDS011;3864;48.180;14.178;2024-03-02T07:47:23;47.15;;;21.45;;
7645;SDS011;3864;48.180;14.178;2024-03-02T07:49:51;46.70;;;23.27;;
7645;SDS011;3864;48.180;14.178;2024-03-02T07:52:18;48.90;;;23.75;;
7645;SDS011;3864;48.180;14.178;2024-03-02T07:54:45;49.58;;;23.23;;
7645;SDS011;3864;48.180;14.178;2024-03-02T07:57:12;44.03;;;21.67;;
7645;SDS011;3864;48.180;14.178;2024-03-02T07:59:39;47.30;;;22.23;;
7645;SDS011;3864;48.180;14.178;2024-03-02T08:02:06;45.50;;;23.08;;
7645;SDS011;3864;48.180;14.178;2024-03-02T08:04:35;47.92;;;22.77;;
7645;SDS011;3864;48.180;14.178;2024-03-02T08:07:03;45.63;;;23.33;;
7645;SDS011;3864;48.180;14.178;2024-03-02T08:09:31;58.05;;;22.90;;
7645;SDS011;3864;48.180;14.178;2024-03-02T08:11:58;47.75;;;22.65;;
7645;SDS011;3864;48.180;14.178;2024-03-02T08:14:25;50.65;;;24.35;;
7645;SDS011;3864;48.180;14.178;2024-03-02T08:16:52;51.55;;;22.85;;
7645;SDS011;3864;48.180;14.178;2024-03-02T08:19:19;51.67;;;23.98;;
7645;SDS011;3864;48.180;14.178;2024-03-02T08:21:48;48.95;;;24.00;;
7645;SDS011;3864;48.180;14.178;2024-03-02T08:24:15;47.97;;;23.58;;
7645;SDS011;3864;48.180;14.178;2024-03-02T08:26:42;47.00;;;25.27;;
7645;SDS011;3864;48.180;14.178;2024-03-02T08:29:09;52.58;;;23.98;;
7645;SDS011;3864;48.180;14.178;2024-03-02T08:31:37;49.72;;;25.60;;
7645;SDS011;3864;48.180;14.178;2024-03-02T08:34:04;48.10;;;23.83;;
7645;SDS011;3864;48.180;14.178;2024-03-02T08:36:31;46.70;;;23.30;;
7645;SDS011;3864;48.180;14.178;2024-03-02T08:39:00;50.03;;;23.08;;
7645;SDS011;3864;48.180;14.178;2024-03-02T08:41:28;50.83;;;24.60;;
7645;SDS011;3864;48.180;14.178;2024-03-02T08:43:55;52.65;;;23.63;;
7645;SDS011;3864;48.180;14.178;2024-03-02T08:46:22;54.47;;;23.98;;
7645;SDS011;3864;48.180;14.178;2024-03-02T08:48:49;49.50;;;24.65;;
7645;SDS011;3864;48.180;14.178;2024-03-02T08:51:16;46.83;;;21.90;;
7645;SDS011;3864;48.180;14.178;2024-03-02T08:53:43;48.58;;;23.88;;
7645;SDS011;3864;48.180;14.178;2024-03-02T08:56:12;49.63;;;22.27;;
7645;SDS011;3864;48.180;14.178;2024-03-02T08:58:41;46.55;;;22.88;;
7645;SDS011;3864;48.180;14.178;2024-03-02T09:01:08;50.95;;;23.17;;
7645;SDS011;3864;48.180;14.178;2024-03-02T09:03:35;52.00;;;21.92;;
7645;SDS011;3864;48.180;14.178;2024-03-02T09:06:02;51.08;;;23.20;;
7645;SDS011;3864;48.180;14.178;2024-03-02T09:08:29;45.83;;;21.95;;
7645;SDS011;3864;48.180;14.178;2024-03-02T09:10:56;45.80;;;23.38;;
7645;SDS011;3864;48.180;14.178;2024-03-02T09:13:25;50.72;;;23.65;;
7645;SDS011;3864;48.180;14.178;2024-03-02T09:15:52;50.22;;;24.88;;
7645;SDS011;3864;48.180;14.178;2024-03-02T09:18:19;52.42;;;24.23;;
7645;SDS011;3864;48.180;14.178;2024-03-02T09:20:46;50.50;;;24.92;;
7645;SDS011;3864;48.180;14.178;2024-03-02T09:23:13;53.00;;;25.40;;
7645;SDS011;3864;48.180;14.178;2024-03-02T09:25:40;50.40;;;25.40;;
7645;SDS011;3864;48.180;14.178;2024-03-02T09:28:08;51.05;;;24.75;;
7645;SDS011;3864;48.180;14.178;2024-03-02T09:30:37;49.03;;;24.10;;
7645;SDS011;3864;48.180;14.178;2024-03-02T09:33:04;45.60;;;22.67;;
7645;SDS011;3864;48.180;14.178;2024-03-02T09:35:31;52.00;;;24.88;;
7645;SDS011;3864;48.180;14.178;2024-03-02T09:37:59;49.60;;;22.60;;
7645;SDS011;3864;48.180;14.178;2024-03-02T09:40:26;45.08;;;22.75;;
7645;SDS011;3864;48.180;14.178;2024-03-02T09:42:53;50.28;;;24.77;;
7645;SDS011;3864;48.180;14.178;2024-03-02T09:45:22;41.25;;;21.08;;
7645;SDS011;3864;48.180;14.178;2024-03-02T09:47:52;44.83;;;23.10;;
7645;SDS011;3864;48.180;14.178;2024-03-02T09:50:19;43.20;;;21.88;;
7645;SDS011;3864;48.180;14.178;2024-03-02T09:52:48;42.08;;;20.75;;
7645;SDS011;3864;48.180;14.178;2024-03-02T09:55:15;38.60;;;19.10;;
7645;SDS011;3864;48.180;14.178;2024-03-02T09:57:44;41.60;;;21.75;;
7645;SDS011;3864;48.180;14.178;2024-03-02T10:00:14;41.22;;;19.85;;
7645;SDS011;3864;48.180;14.178;2024-03-02T10:02:41;37.63;;;19.48;;
7645;SDS011;3864;48.180;14.178;2024-03-02T10:05:11;34.92;;;16.83;;
7645;SDS011;3864;48.180;14.178;2024-03-02T10:07:38;35.13;;;17.38;;
7645;SDS011;3864;48.180;14.178;2024-03-02T10:10:12;26.67;;;15.18;;
7645;SDS011;3864;48.180;14.178;2024-03-02T10:12:40;27.27;;;15.25;;
7645;SDS011;3864;48.180;14.178;2024-03-02T10:15:08;27.20;;;15.30;;
7645;SDS011;3864;48.180;14.178;2024-03-02T10:17:36;27.50;;;14.82;;
7645;SDS011;3864;48.180;14.178;2024-03-02T10:20:22;28.48;;;15.68;;
7645;SDS011;3864;48.180;14.178;2024-03-02T10:22:50;26.35;;;16.02;;
7645;SDS011;3864;48.180;14.178;2024-03-02T10:27:59;28.88;;;14.63;;
7645;SDS011;3864;48.180;14.178;2024-03-02T10:30:27;32.05;;;16.65;;
7645;SDS011;3864;48.180;14.178;2024-03-02T10:32:54;26.25;;;14.43;;
7645;SDS011;3864;48.180;14.178;2024-03-02T10:35:23;29.75;;;15.52;;
7645;SDS011;3864;48.180;14.178;2024-03-02T10:37:51;24.88;;;14.00;;
7645;SDS011;3864;48.180;14.178;2024-03-02T10:40:21;29.80;;;15.40;;
7645;SDS011;3864;48.180;14.178;2024-03-02T10:42:49;26.63;;;14.82;;
7645;SDS011;3864;48.180;14.178;2024-03-02T10:45:17;27.77;;;14.75;;
7645;SDS011;3864;48.180;14.178;2024-03-02T10:47:47;29.77;;;15.02;;
7645;SDS011;3864;48.180;14.178;2024-03-02T10:50:15;26.75;;;14.98;;
7645;SDS011;3864;48.180;14.178;2024-03-02T10:52:44;27.73;;;14.75;;
7645;SDS011;3864;48.180;14.178;2024-03-02T10:55:12;30.17;;;15.75;;
7645;SDS011;3864;48.180;14.178;2024-03-02T10:57:45;27.10;;;14.07;;
7645;SDS011;3864;48.180;14.178;2024-03-02T11:00:17;28.02;;;15.52;;
7645;SDS011;3864;48.180;14.178;2024-03-02T11:02:50;26.15;;;13.30;;
7645;SDS011;3864;48.180;14.178;2024-03-02T11:05:22;25.75;;;14.52;;
7645;SDS011;3864;48.180;14.178;2024-03-02T11:07:56;27.23;;;16.25;;
7645;SDS011;3864;48.180;14.178;2024-03-02T11:10:26;28.63;;;16.00;;
7645;SDS011;3864;48.180;14.178;2024-03-02T11:13:00;30.88;;;15.70;;
7645;SDS011;3864;48.180;14.178;2024-03-02T11:17:59;26.90;;;15.18;;
7645;SDS011;3864;48.180;14.178;2024-03-02T11:20:30;27.88;;;14.82;;
7645;SDS011;3864;48.180;14.178;2024-03-02T11:23:04;31.05;;;16.02;;
7645;SDS011;3864;48.180;14.178;2024-03-02T11:25:31;33.13;;;17.50;;
7645;SDS011;3864;48.180;14.178;2024-03-02T11:27:59;31.20;;;16.15;;
7645;SDS011;3864;48.180;14.178;2024-03-02T11:33:24;30.15;;;15.27;;
7645;SDS011;3864;48.180;14.178;2024-03-02T11:35:54;30.52;;;16.15;;
7645;SDS011;3864;48.180;14.178;2024-03-02T11:38:27;28.13;;;15.95;;
7645;SDS011;3864;48.180;14.178;2024-03-02T11:40:59;27.83;;;15.00;;
7645;SDS011;3864;48.180;14.178;2024-03-02T11:43:27;26.67;;;15.32;;
7645;SDS011;3864;48.180;14.178;2024-03-02T11:45:58;25.92;;;14.70;;
7645;SDS011;3864;48.180;14.178;2024-03-02T11:48:26;27.00;;;14.63;;
7645;SDS011;3864;48.180;14.178;2024-03-02T11:50:53;29.90;;;17.60;;
7645;SDS011;3864;48.180;14.178;2024-03-02T11:53:24;30.67;;;16.00;;
7645;SDS011;3864;48.180;14.178;2024-03-02T11:55:54;32.28;;;17.73;;
7645;SDS011;3864;48.180;14.178;2024-03-02T11:58:22;32.42;;;15.93;;
7645;SDS011;3864;48.180;14.178;2024-03-02T12:00:51;34.20;;;17.67;;
7645;SDS011;3864;48.180;14.178;2024-03-02T12:03:20;30.90;;;16.30;;
7645;SDS011;3864;48.180;14.178;2024-03-02T12:05:50;30.83;;;15.50;;
7645;SDS011;3864;48.180;14.178;2024-03-02T12:08:18;31.98;;;16.27;;
7645;SDS011;3864;48.180;14.178;2024-03-02T12:10:57;29.17;;;15.88;;
7645;SDS011;3864;48.180;14.178;2024-03-02T12:13:25;29.08;;;15.02;;
7645;SDS011;3864;48.180;14.178;2024-03-02T12:15:53;29.77;;;16.13;;
7645;SDS011;3864;48.180;14.178;2024-03-02T12:18:21;24.42;;;14.77;;
7645;SDS011;3864;48.180;14.178;2024-03-02T12:20:48;31.17;;;15.65;;
7645;SDS011;3864;48.180;14.178;2024-03-02T12:23:17;29.50;;;15.55;;
7645;SDS011;3864;48.180;14.178;2024-03-02T12:25:46;30.40;;;14.43;;
7645;SDS011;3864;48.180;14.178;2024-03-02T12:28:15;28.65;;;15.32;;
7645;SDS011;3864;48.180;14.178;2024-03-02T12:30:42;31.52;;;17.85;;
7645;SDS011;3864;48.180;14.178;2024-03-02T12:33:11;30.63;;;15.65;;
7645;SDS011;3864;48.180;14.178;2024-03-02T12:35:38;30.55;;;16.88;;
7645;SDS011;3864;48.180;14.178;2024-03-02T12:38:06;27.90;;;16.70;;
7645;SDS011;3864;48.180;14.178;2024-03-02T12:40:33;33.15;;;17.27;;
7645;SDS011;3864;48.180;14.178;2024-03-02T12:43:02;31.98;;;16.35;;
7645;SDS011;3864;48.180;14.178;2024-03-02T12:45:31;35.25;;;18.58;;
7645;SDS011;3864;48.180;14.178;2024-03-02T12:47:59;34.75;;;19.17;;
7645;SDS011;3864;48.180;14.178;2024-03-02T12:50:27;35.40;;;19.48;;
7645;SDS011;3864;48.180;14.178;2024-03-02T12:52:54;36.92;;;19.38;;
7645;SDS011;3864;48.180;14.178;2024-03-02T12:55:22;36.58;;;20.17;;
7645;SDS011;3864;48.180;14.178;2024-03-02T12:57:50;32.83;;;18.83;;
7645;SDS011;3864;48.180;14.178;2024-03-02T13:00:17;40.20;;;20.50;;
7645;SDS011;3864;48.180;14.178;2024-03-02T13:02:47;37.60;;;20.73;;
7645;SDS011;3864;48.180;14.178;2024-03-02T13:05:15;37.20;;;19.08;;
7645;SDS011;3864;48.180;14.178;2024-03-02T13:07:42;37.22;;;20.00;;
7645;SDS011;3864;48.180;14.178;2024-03-02T13:10:12;34.78;;;17.48;;
7645;SDS011;3864;48.180;14.178;2024-03-02T13:12:39;30.85;;;16.27;;
7645;SDS011;3864;48.180;14.178;2024-03-02T13:15:06;29.88;;;16.27;;
7645;SDS011;3864;48.180;14.178;2024-03-02T13:17:36;27.63;;;14.63;;
7645;SDS011;3864;48.180;14.178;2024-03-02T13:20:12;28.42;;;15.40;;
7645;SDS011;3864;48.180;14.178;2024-03-02T13:22:42;27.50;;;14.32;;
7645;SDS011;3864;48.180;14.178;2024-03-02T13:25:09;25.15;;;13.85;;
7645;SDS011;3864;48.180;14.178;2024-03-02T13:27:37;24.10;;;12.85;;
7645;SDS011;3864;48.180;14.178;2024-03-02T13:30:04;25.75;;;12.85;;
7645;SDS011;3864;48.180;14.178;2024-03-02T13:32:33;26.45;;;14.00;;
7645;SDS011;3864;48.180;14.178;2024-03-02T13:35:00;24.90;;;13.93;;
7645;SDS011;3864;48.180;14.178;2024-03-02T13:37:29;24.17;;;13.20;;
7645;SDS011;3864;48.180;14.178;2024-03-02T13:39:56;27.30;;;14.10;;
7645;SDS011;3864;48.180;14.178;2024-03-02T13:42:23;23.95;;;13.48;;
7645;SDS011;3864;48.180;14.178;2024-03-02T13:44:51;25.20;;;14.70;;
7645;SDS011;3864;48.180;14.178;2024-03-02T13:47:18;26.50;;;13.77;;
7645;SDS011;3864;48.180;14.178;2024-03-02T13:49:46;24.80;;;12.60;;
7645;SDS011;3864;48.180;14.178;2024-03-02T13:52:14;22.75;;;13.25;;
7645;SDS011;3864;48.180;14.178;2024-03-02T13:54:44;25.02;;;13.82;;
7645;SDS011;3864;48.180;14.178;2024-03-02T13:57:13;25.48;;;13.82;;
7645;SDS011;3864;48.180;14.178;2024-03-02T13:59:41;22.42;;;13.25;;
7645;SDS011;3864;48.180;14.178;2024-03-02T14:02:09;22.27;;;13.68;;
7645;SDS011;3864;48.180;14.178;2024-03-02T14:04:37;24.30;;;13.48;;
7645;SDS011;3864;48.180;14.178;2024-03-02T14:07:04;23.98;;;13.90;;
7645;SDS011;3864;48.180;14.178;2024-03-02T14:09:33;22.23;;;12.43;;
7645;SDS011;3864;48.180;14.178;2024-03-02T14:12:02;22.48;;;12.52;;
7645;SDS011;3864;48.180;14.178;2024-03-02T14:14:30;25.15;;;13.85;;
7645;SDS011;3864;48.180;14.178;2024-03-02T14:16:58;24.05;;;13.25;;
7645;SDS011;3864;48.180;14.178;2024-03-02T14:19:28;21.70;;;12.93;;
7645;SDS011;3864;48.180;14.178;2024-03-02T14:21:56;21.75;;;13.20;;
7645;SDS011;3864;48.180;14.178;2024-03-02T14:24:23;22.80;;;13.18;;
7645;SDS011;3864;48.180;14.178;2024-03-02T14:26:51;19.77;;;12.07;;
7645;SDS011;3864;48.180;14.178;2024-03-02T14:29:19;22.20;;;12.25;;
7645;SDS011;3864;48.180;14.178;2024-03-02T14:31:47;20.83;;;12.38;;
7645;SDS011;3864;48.180;14.178;2024-03-02T14:34:14;22.95;;;13.20;;
7645;SDS011;3864;48.180;14.178;2024-03-02T14:36:41;22.15;;;13.25;;
7645;SDS011;3864;48.180;14.178;2024-03-02T14:39:09;24.63;;;14.27;;
7645;SDS011;3864;48.180;14.178;2024-03-02T14:41:37;24.98;;;12.35;;
7645;SDS011;3864;48.180;14.178;2024-03-02T14:44:04;23.50;;;12.15;;
7645;SDS011;3864;48.180;14.178;2024-03-02T14:46:33;25.83;;;14.25;;
7645;SDS011;3864;48.180;14.178;2024-03-02T14:49:00;24.55;;;12.50;;
7645;SDS011;3864;48.180;14.178;2024-03-02T14:51:27;24.10;;;13.43;;
7645;SDS011;3864;48.180;14.178;2024-03-02T14:53:55;25.08;;;12.85;;
7645;SDS011;3864;48.180;14.178;2024-03-02T14:56:22;21.35;;;12.52;;
7645;SDS011;3864;48.180;14.178;2024-03-02T14:58:50;23.40;;;13.30;;
7645;SDS011;3864;48.180;14.178;2024-03-02T15:01:17;23.52;;;12.38;;
7645;SDS011;3864;48.180;14.178;2024-03-02T15:03:48;23.92;;;12.98;;